createdAt,value
2023-02-17T00:01:25.039Z,27.27
2023-02-17T00:03:53.472Z,15.40
2023-02-17T00:06:25.405Z,24.17
2023-02-17T00:08:53.541Z,21.55
2023-02-17T00:11:21.111Z,18.23
2023-02-17T00:13:49.118Z,33.15
2023-02-17T00:16:23.312Z,18.13
2023-02-17T00:18:56.816Z,17.85
2023-02-17T00:21:27.112Z,18.25
2023-02-17T00:23:55.039Z,22.08
2023-02-17T00:26:22.622Z,18.23
2023-02-17T00:28:51.164Z,21.30
2023-02-17T00:31:22.039Z,14.38
2023-02-17T00:33:49.834Z,20.75
2023-02-17T00:36:20.302Z,19.75
2023-02-17T00:38:49.393Z,25.20
2023-02-17T00:41:18.807Z,19.15
2023-02-17T00:43:47.441Z,19.08
2023-02-17T00:46:18.038Z,17.48
2023-02-17T00:48:46.404Z,18.02
2023-02-17T00:51:15.206Z,18.85
2023-02-17T00:53:43.301Z,20.70
2023-02-17T00:56:11.169Z,23.50
2023-02-17T00:58:39.565Z,14.90
2023-02-17T01:01:07.495Z,21.63
2023-02-17T01:03:35.187Z,13.77
2023-02-17T01:06:08.209Z,18.33
2023-02-17T01:08:36.261Z,16.80
2023-02-17T01:11:05.712Z,17.63
2023-02-17T01:13:33.227Z,16.63
2023-02-17T01:16:00.823Z,15.30
2023-02-17T01:18:28.592Z,17.88
2023-02-17T01:20:56.094Z,18.08
2023-02-17T01:23:23.753Z,14.60
2023-02-17T01:25:53.581Z,13.60
2023-02-17T01:28:23.388Z,17.70
2023-02-17T01:30:51.019Z,18.98
2023-02-17T01:33:18.757Z,18.45
2023-02-17T01:35:46.281Z,24.98
2023-02-17T01:38:14.113Z,18.17
2023-02-17T01:40:49.496Z,24.55
2023-02-17T01:43:18.907Z,18.35
2023-02-17T01:45:55.565Z,15.23
2023-02-17T01:48:31.575Z,17.83
2023-02-17T01:51:21.468Z,18.27
2023-02-17T01:53:58.163Z,16.40
2023-02-17T01:56:27.205Z,14.88
2023-02-17T01:59:01.747Z,18.23
2023-02-17T02:01:30.516Z,19.50
2023-02-17T02:04:00.877Z,20.38
2023-02-17T02:06:31.272Z,17.92
2023-02-17T02:09:16.117Z,21.17
2023-02-17T02:11:43.760Z,14.48
2023-02-17T02:14:12.262Z,27.23
2023-02-17T02:16:43.893Z,18.95
2023-02-17T02:19:42.158Z,17.73
2023-02-17T02:22:19.524Z,21.05
2023-02-17T02:25:09.060Z,14.68
2023-02-17T02:27:49.146Z,15.30
2023-02-17T02:30:34.831Z,18.45
2023-02-17T02:33:08.538Z,13.68
2023-02-17T02:35:51.819Z,11.57
2023-02-17T02:41:03.724Z,18.20
2023-02-17T02:43:32.405Z,18.55
2023-02-17T02:46:00.069Z,19.60
2023-02-17T02:48:28.136Z,19.08
2023-02-17T02:51:19.218Z,15.30
2023-02-17T02:53:57.297Z,8.52
2023-02-17T02:56:47.116Z,13.15
2023-02-17T02:59:39.601Z,19.25
2023-02-17T03:02:21.201Z,14.02
2023-02-17T03:05:16.169Z,20.67
2023-02-17T03:07:54.735Z,14.05
2023-02-17T03:10:22.505Z,22.08
2023-02-17T03:12:50.344Z,17.23
2023-02-17T03:15:34.797Z,13.25
2023-02-17T03:18:03.623Z,7.78
2023-02-17T03:20:36.535Z,9.27
2023-02-17T03:23:05.234Z,15.93
2023-02-17T03:25:33.113Z,21.13
2023-02-17T03:28:00.854Z,16.13
2023-02-17T03:30:28.859Z,21.67
2023-02-17T03:32:56.397Z,19.40
2023-02-17T03:35:23.925Z,16.73
2023-02-17T03:37:51.496Z,16.48
2023-02-17T03:40:19.138Z,17.77
2023-02-17T03:42:46.670Z,12.60
2023-02-17T03:45:14.256Z,10.13
2023-02-17T03:47:41.827Z,14.63
2023-02-17T03:50:09.648Z,13.25
2023-02-17T03:52:37.425Z,24.30
2023-02-17T03:55:05.163Z,23.70
2023-02-17T03:57:35.080Z,14.98
2023-02-17T04:00:02.570Z,14.98
2023-02-17T04:02:43.927Z,16.63
2023-02-17T04:05:12.025Z,18.20
2023-02-17T04:07:39.510Z,17.67
2023-02-17T04:10:09.499Z,21.38
2023-02-17T04:12:37.285Z,12.20
2023-02-17T04:15:05.346Z,19.58
2023-02-17T04:17:32.822Z,14.38
2023-02-17T04:20:00.575Z,23.77
2023-02-17T04:22:28.077Z,22.35
2023-02-17T04:24:55.648Z,25.50
2023-02-17T04:27:23.214Z,16.10
2023-02-17T04:29:52.222Z,14.55
2023-02-17T04:32:19.806Z,21.17
2023-02-17T04:34:47.379Z,20.70
2023-02-17T04:37:14.915Z,18.38
2023-02-17T04:39:42.491Z,16.67
2023-02-17T04:42:10.003Z,19.48
2023-02-17T04:44:37.475Z,21.77
2023-02-17T04:47:05.088Z,16.17
2023-02-17T04:49:32.833Z,21.15
2023-02-17T04:52:00.304Z,24.73
2023-02-17T04:54:27.843Z,19.67
2023-02-17T04:56:55.429Z,19.85
2023-02-17T04:59:25.495Z,22.05
2023-02-17T05:01:53.212Z,14.35
2023-02-17T05:04:21.081Z,16.80
2023-02-17T05:06:48.773Z,14.13
2023-02-17T05:09:16.318Z,18.33
2023-02-17T05:11:43.980Z,22.27
2023-02-17T05:14:11.604Z,21.52
2023-02-17T05:16:39.157Z,22.85
2023-02-17T05:19:06.639Z,21.35
2023-02-17T05:21:34.352Z,19.75
2023-02-17T05:24:02.157Z,22.60
2023-02-17T05:26:29.936Z,20.35
2023-02-17T05:28:57.517Z,22.77
2023-02-17T05:31:25.155Z,16.83
2023-02-17T05:33:55.119Z,16.73
2023-02-17T05:36:22.729Z,14.30
2023-02-17T05:38:51.538Z,18.95
2023-02-17T05:41:20.154Z,14.13
2023-02-17T05:43:48.318Z,13.73
2023-02-17T05:46:16.133Z,19.13
2023-02-17T05:48:44.583Z,23.83
2023-02-17T05:51:14.084Z,18.33
2023-02-17T05:53:41.572Z,18.77
2023-02-17T05:56:09.426Z,21.73
2023-02-17T05:58:37.109Z,13.63
2023-02-17T06:01:09.690Z,14.32
2023-02-17T06:03:37.530Z,17.42
2023-02-17T06:06:06.362Z,23.30
2023-02-17T06:08:35.199Z,20.38
2023-02-17T06:11:03.438Z,16.67
2023-02-17T06:13:30.967Z,16.35
2023-02-17T06:15:58.974Z,14.70
2023-02-17T06:18:26.548Z,13.57
2023-02-17T06:20:57.361Z,22.00
2023-02-17T06:23:25.956Z,14.57
2023-02-17T06:25:54.642Z,13.27
2023-02-17T06:28:22.306Z,16.98
2023-02-17T06:30:49.846Z,16.70
2023-02-17T06:33:17.398Z,17.63
2023-02-17T06:35:50.022Z,15.70
2023-02-17T06:38:18.198Z,17.20
2023-02-17T06:40:45.953Z,19.35
2023-02-17T06:43:13.440Z,28.75
2023-02-17T06:45:41.072Z,19.60
2023-02-17T06:48:08.965Z,21.27
2023-02-17T06:50:36.662Z,20.60
2023-02-17T06:53:04.396Z,25.02
2023-02-17T06:55:31.962Z,22.83
2023-02-17T06:57:59.577Z,21.63
2023-02-17T07:00:27.483Z,19.88
2023-02-17T07:02:55.035Z,16.20
2023-02-17T07:05:22.599Z,25.13
2023-02-17T07:07:50.213Z,19.45
2023-02-17T07:10:17.795Z,21.70
2023-02-17T07:12:45.339Z,18.77
2023-02-17T07:15:13.024Z,20.80
2023-02-17T07:17:40.850Z,20.80
2023-02-17T07:20:09.705Z,19.90
2023-02-17T07:22:37.256Z,18.90
2023-02-17T07:25:05.777Z,19.27
2023-02-17T07:27:36.363Z,15.25
2023-02-17T07:30:05.366Z,20.83
2023-02-17T07:32:33.082Z,16.90
2023-02-17T07:35:00.598Z,16.50
2023-02-17T07:37:28.217Z,13.75
2023-02-17T07:39:57.394Z,16.90
2023-02-17T07:42:24.876Z,15.95
2023-02-17T07:44:52.514Z,14.88
2023-02-17T07:47:20.242Z,21.92
2023-02-17T07:49:47.871Z,14.13
2023-02-17T07:52:18.391Z,12.35
2023-02-17T07:54:45.959Z,18.20
2023-02-17T07:57:13.411Z,16.23
2023-02-17T07:59:40.949Z,15.10
2023-02-17T08:02:11.028Z,15.27
2023-02-17T08:04:38.627Z,17.30
2023-02-17T08:07:06.197Z,12.65
2023-02-17T08:09:51.887Z,15.50
2023-02-17T08:12:39.778Z,13.30
2023-02-17T08:15:09.983Z,20.50
2023-02-17T08:17:38.762Z,17.25
2023-02-17T08:20:09.016Z,30.70
2023-02-17T08:22:37.607Z,22.42
2023-02-17T08:25:06.495Z,20.67
2023-02-17T08:27:34.578Z,17.58
2023-02-17T08:30:02.367Z,17.55
2023-02-17T08:32:31.590Z,11.82
2023-02-17T08:34:59.211Z,17.92
2023-02-17T08:37:26.802Z,12.05
2023-02-17T08:39:54.343Z,12.85
2023-02-17T08:42:22.018Z,16.25
2023-02-17T08:44:49.568Z,15.63
2023-02-17T08:47:17.113Z,13.95
2023-02-17T08:49:44.989Z,18.75
2023-02-17T08:52:12.624Z,23.88
2023-02-17T08:54:40.197Z,19.20
2023-02-17T08:57:07.877Z,19.95
2023-02-17T08:59:35.509Z,17.83
2023-02-17T09:02:03.191Z,18.52
2023-02-17T09:04:30.808Z,18.40
2023-02-17T09:06:58.689Z,19.42
2023-02-17T09:09:27.404Z,15.40
2023-02-17T09:11:58.049Z,16.95
2023-02-17T09:14:25.737Z,24.05
2023-02-17T09:16:56.937Z,19.92
2023-02-17T09:19:26.366Z,19.83
2023-02-17T09:21:54.144Z,16.42
2023-02-17T09:24:21.775Z,22.20
2023-02-17T09:26:49.406Z,15.38
2023-02-17T09:29:16.992Z,16.25
2023-02-17T09:31:46.501Z,15.73
2023-02-17T09:34:15.162Z,14.75
2023-02-17T09:36:43.166Z,17.17
2023-02-17T09:39:13.839Z,15.20
2023-02-17T09:41:48.193Z,17.40
2023-02-17T09:44:26.266Z,16.27
2023-02-17T09:47:10.650Z,14.13
2023-02-17T09:49:56.495Z,16.80
2023-02-17T09:52:32.009Z,16.02
2023-02-17T09:55:15.597Z,17.52
2023-02-17T09:58:07.427Z,17.02
2023-02-17T10:00:57.018Z,16.77
2023-02-17T10:03:40.383Z,15.25
2023-02-17T10:06:22.347Z,14.85
2023-02-17T10:09:05.093Z,11.77
2023-02-17T10:11:38.776Z,13.32
2023-02-17T10:14:23.089Z,14.73
2023-02-17T10:17:11.204Z,15.38
2023-02-17T10:19:56.381Z,13.50
2023-02-17T10:22:26.482Z,15.90
2023-02-17T10:24:54.179Z,10.63
2023-02-17T10:27:42.357Z,13.38
2023-02-17T10:30:34.315Z,13.00
2023-02-17T10:33:13.322Z,12.80
2023-02-17T10:35:54.350Z,13.32
2023-02-17T10:38:28.075Z,11.15
2023-02-17T10:40:56.859Z,11.30
2023-02-17T10:43:30.441Z,10.60
2023-02-17T10:46:00.271Z,11.60
2023-02-17T10:48:44.590Z,11.65
2023-02-17T10:51:16.648Z,12.10
2023-02-17T10:53:48.847Z,14.15
2023-02-17T10:56:32.976Z,12.13
2023-02-17T10:59:07.512Z,7.53
2023-02-17T11:01:36.888Z,12.13
2023-02-17T11:04:07.488Z,11.90
2023-02-17T11:06:44.800Z,11.35
2023-02-17T11:09:29.004Z,8.70
2023-02-17T11:12:13.606Z,9.88
2023-02-17T11:14:50.612Z,11.32
2023-02-17T11:17:30.634Z,14.98
2023-02-17T11:20:21.375Z,11.60
2023-02-17T11:23:22.341Z,9.52
2023-02-17T11:25:59.984Z,9.25
2023-02-17T11:28:28.182Z,8.20
2023-02-17T11:30:58.765Z,11.13
2023-02-17T11:33:38.917Z,11.82
2023-02-17T11:36:08.716Z,12.02
2023-02-17T11:38:39.519Z,10.88
2023-02-17T11:41:08.187Z,16.60
2023-02-17T11:43:36.956Z,15.20
2023-02-17T11:46:16.975Z,11.95
2023-02-17T11:48:55.748Z,11.45
2023-02-17T11:51:33.628Z,11.18
2023-02-17T11:54:04.731Z,12.38
2023-02-17T11:56:38.865Z,12.05
2023-02-17T11:59:31.818Z,11.27
2023-02-17T12:05:03.537Z,11.05
2023-02-17T12:08:12.526Z,9.00
2023-02-17T12:11:17.409Z,8.93
2023-02-17T12:14:33.382Z,9.65
2023-02-17T12:17:00.900Z,12.15
2023-02-17T12:19:46.610Z,9.85
2023-02-17T12:22:23.822Z,13.80
2023-02-17T12:25:32.772Z,15.57
2023-02-17T12:28:16.714Z,10.18
2023-02-17T12:30:44.477Z,10.00
2023-02-17T12:33:26.707Z,11.25
2023-02-17T12:35:58.729Z,13.32
2023-02-17T12:38:30.940Z,13.63
2023-02-17T12:41:10.841Z,7.28
2023-02-17T12:43:52.638Z,9.45
2023-02-17T12:46:30.117Z,11.50
2023-02-17T12:49:16.876Z,9.63
2023-02-17T12:51:55.781Z,13.23
2023-02-17T12:54:56.607Z,10.68
2023-02-17T12:57:58.527Z,13.45
2023-02-17T13:00:59.442Z,9.27
2023-02-17T13:03:31.278Z,10.38
2023-02-17T13:06:23.638Z,9.23
2023-02-17T13:09:15.954Z,11.70
2023-02-17T13:11:45.830Z,11.52
2023-02-17T13:14:41.110Z,10.55
2023-02-17T13:17:31.585Z,6.72
2023-02-17T13:20:12.885Z,9.55
2023-02-17T13:22:42.655Z,9.98
2023-02-17T13:25:27.731Z,11.45
2023-02-17T13:27:55.365Z,4.68
2023-02-17T13:30:23.046Z,6.28
2023-02-17T13:33:26.426Z,7.10
2023-02-17T13:35:54.253Z,11.95
2023-02-17T13:38:39.927Z,10.15
2023-02-17T13:41:07.895Z,11.23
2023-02-17T13:43:42.912Z,10.30
2023-02-17T13:46:17.291Z,10.10
2023-02-17T13:48:45.044Z,6.75
2023-02-17T13:51:28.062Z,7.43
2023-02-17T13:53:56.033Z,8.15
2023-02-17T13:56:31.363Z,7.95
2023-02-17T13:59:26.576Z,6.97
2023-02-17T14:01:57.586Z,7.80
2023-02-17T14:04:31.785Z,10.32
2023-02-17T14:07:01.740Z,8.18
2023-02-17T14:09:32.159Z,13.70
2023-02-17T14:12:03.444Z,9.43
2023-02-17T14:14:37.517Z,7.28
2023-02-17T14:17:26.770Z,10.85
2023-02-17T14:19:54.301Z,17.73
2023-02-17T14:22:31.225Z,9.82
2023-02-17T14:25:09.551Z,10.68
2023-02-17T14:27:50.534Z,6.28
2023-02-17T14:30:36.451Z,9.88
2023-02-17T14:33:06.126Z,8.10
2023-02-17T14:35:35.431Z,11.05
2023-02-17T14:38:25.324Z,10.93
2023-02-17T14:40:58.946Z,11.10
2023-02-17T14:43:26.621Z,11.95
2023-02-17T14:45:54.339Z,9.30
2023-02-17T14:48:27.743Z,9.13
2023-02-17T14:50:57.681Z,9.48
2023-02-17T14:53:33.455Z,10.35
2023-02-17T15:00:04.369Z,9.75
2023-02-17T15:02:32.488Z,11.27
2023-02-17T15:05:00.065Z,9.07
2023-02-17T15:07:27.611Z,7.35
2023-02-17T15:09:55.526Z,11.93
2023-02-17T15:12:23.157Z,21.52
2023-02-17T15:14:50.650Z,23.23
2023-02-17T15:17:18.277Z,15.35
2023-02-17T15:19:45.776Z,18.60
2023-02-17T15:22:14.581Z,12.30
2023-02-17T15:24:42.339Z,14.52
2023-02-17T15:27:15.471Z,11.25
2023-02-17T15:29:43.215Z,12.07
2023-02-17T15:32:19.175Z,8.40
2023-02-17T15:34:47.281Z,7.25
2023-02-17T15:37:14.991Z,9.80
2023-02-17T15:39:42.589Z,11.15
2023-02-17T15:42:13.962Z,9.30
2023-02-17T15:44:51.023Z,12.68
2023-02-17T15:47:20.778Z,10.48
2023-02-17T15:49:48.550Z,8.50
2023-02-17T15:52:16.299Z,11.05
2023-02-17T15:54:44.512Z,7.57
2023-02-17T15:57:24.652Z,10.75
2023-02-17T15:59:55.428Z,10.73
2023-02-17T16:02:24.709Z,12.93
2023-02-17T16:04:52.303Z,11.23
2023-02-17T16:07:19.879Z,7.13
2023-02-17T16:09:47.429Z,9.10
2023-02-17T16:12:27.353Z,10.32
2023-02-17T16:14:56.112Z,7.70
2023-02-17T16:17:24.275Z,9.02
2023-02-17T16:19:51.990Z,10.75
2023-02-17T16:22:19.513Z,10.40
2023-02-17T16:24:47.231Z,16.13
2023-02-17T16:27:16.703Z,9.77
2023-02-17T16:29:44.468Z,9.60
2023-02-17T16:32:13.201Z,8.93
2023-02-17T16:34:40.920Z,12.20
2023-02-17T16:37:17.711Z,9.98
2023-02-17T16:39:46.240Z,10.75
2023-02-17T16:42:15.844Z,10.30
2023-02-17T16:44:44.500Z,9.65
2023-02-17T16:47:22.939Z,10.18
2023-02-17T16:49:50.782Z,9.20
2023-02-17T16:52:25.757Z,10.95
2023-02-17T16:54:54.129Z,4.35
2023-02-17T16:57:22.511Z,7.28
2023-02-17T16:59:50.137Z,9.90
2023-02-17T17:02:18.235Z,12.48
2023-02-17T17:04:46.548Z,8.95
2023-02-17T17:07:16.381Z,8.73
2023-02-17T17:09:48.818Z,13.30
2023-02-17T17:12:19.937Z,13.98
2023-02-17T17:14:47.498Z,12.52
2023-02-17T17:17:15.107Z,10.52
2023-02-17T17:19:42.665Z,11.55
2023-02-17T17:22:12.045Z,14.25
2023-02-17T17:24:39.605Z,10.20
2023-02-17T17:27:07.146Z,12.98
2023-02-17T17:29:34.843Z,10.95
2023-02-17T17:32:02.500Z,11.00
2023-02-17T17:34:30.145Z,10.27
2023-02-17T17:36:57.877Z,10.70
2023-02-17T17:39:25.406Z,12.32
2023-02-17T17:41:53.122Z,11.38
2023-02-17T17:44:20.995Z,10.52
2023-02-17T17:46:48.844Z,11.35
2023-02-17T17:49:18.538Z,11.10
2023-02-17T17:51:46.286Z,10.48
2023-02-17T17:54:13.964Z,13.25
2023-02-17T17:56:43.430Z,11.45
2023-02-17T17:59:12.379Z,10.57
2023-02-17T18:01:40.163Z,10.27
2023-02-17T18:04:09.754Z,8.30
2023-02-17T18:06:47.642Z,6.75
2023-02-17T18:09:32.113Z,9.00
2023-02-17T18:12:03.236Z,13.35
2023-02-17T18:14:32.408Z,12.05
2023-02-17T18:17:01.873Z,9.35
2023-02-17T18:19:32.012Z,11.43
2023-02-17T18:21:59.555Z,10.05
2023-02-17T18:24:27.555Z,11.40
2023-02-17T18:26:55.119Z,14.10
2023-02-17T18:29:22.654Z,9.65
2023-02-17T18:31:50.324Z,7.43
2023-02-17T18:34:18.009Z,9.27
2023-02-17T18:36:48.715Z,10.15
2023-02-17T18:39:16.296Z,10.48
2023-02-17T18:41:43.924Z,13.07
2023-02-17T18:44:11.936Z,15.93
2023-02-17T18:46:40.183Z,15.13
2023-02-17T18:49:08.403Z,11.10
2023-02-17T18:51:36.069Z,10.82
2023-02-17T18:54:11.090Z,11.18
2023-02-17T18:56:39.001Z,10.48
2023-02-17T18:59:07.566Z,7.15
2023-02-17T19:01:39.742Z,10.10
2023-02-17T19:04:10.028Z,11.07
2023-02-17T19:06:37.663Z,11.52
2023-02-17T19:09:05.627Z,12.82
2023-02-17T19:11:33.769Z,12.05
2023-02-17T19:14:02.481Z,7.30
2023-02-17T19:16:32.703Z,8.82
2023-02-17T19:19:01.920Z,11.60
2023-02-17T19:21:30.616Z,15.23
2023-02-17T19:23:59.154Z,10.30
2023-02-17T19:26:26.679Z,12.88
2023-02-17T19:28:54.267Z,13.13
2023-02-17T19:31:22.041Z,13.23
2023-02-17T19:33:49.741Z,13.35
2023-02-17T19:36:21.438Z,12.52
2023-02-17T19:38:50.251Z,13.43
2023-02-17T19:41:19.217Z,15.02
2023-02-17T19:43:46.885Z,21.25
2023-02-17T19:46:24.760Z,11.48
2023-02-17T19:48:52.629Z,11.77
2023-02-17T19:51:20.348Z,11.00
2023-02-17T19:53:48.537Z,9.98
2023-02-17T19:56:24.577Z,13.60
2023-02-17T19:58:53.233Z,15.68
2023-02-17T20:01:23.708Z,12.35
2023-02-17T20:03:52.092Z,8.70
2023-02-17T20:06:26.138Z,14.43
2023-02-17T20:09:03.001Z,12.80
2023-02-17T20:11:32.284Z,12.70
2023-02-17T20:14:01.742Z,14.25
2023-02-17T20:16:29.915Z,14.45
2023-02-17T20:18:57.725Z,11.15
2023-02-17T20:21:28.460Z,9.82
2023-02-17T20:23:56.454Z,9.25
2023-02-17T20:26:29.161Z,7.28
2023-02-17T20:28:57.546Z,10.88
2023-02-17T20:31:25.637Z,15.60
2023-02-17T20:33:54.074Z,17.05
2023-02-17T20:36:22.582Z,12.82
2023-02-17T20:38:50.905Z,9.60
2023-02-17T20:41:21.492Z,12.60
2023-02-17T20:43:50.266Z,11.35
2023-02-17T20:46:28.796Z,10.43
2023-02-17T20:48:57.063Z,9.20
2023-02-17T20:51:25.114Z,11.73
2023-02-17T20:53:52.993Z,6.07
2023-02-17T20:56:23.330Z,12.25
2023-02-17T20:58:51.976Z,13.30
2023-02-17T21:01:19.960Z,11.40
2023-02-17T21:03:48.156Z,10.15
2023-02-17T21:06:24.982Z,10.38
2023-02-17T21:09:01.123Z,10.05
2023-02-17T21:11:29.544Z,12.07
2023-02-17T21:13:57.346Z,12.73
2023-02-17T21:16:31.263Z,17.48
2023-02-17T21:18:59.871Z,10.85
2023-02-17T21:21:28.746Z,5.80
2023-02-17T21:23:57.207Z,6.88
2023-02-17T21:26:24.922Z,11.73
2023-02-17T21:28:52.845Z,8.38
2023-02-17T21:31:20.520Z,14.25
2023-02-17T21:33:49.242Z,12.82
2023-02-17T21:36:18.206Z,14.95
2023-02-17T21:38:47.199Z,10.55
2023-02-17T21:41:20.985Z,10.48
2023-02-17T21:46:35.456Z,12.75
2023-02-17T21:49:03.754Z,13.55
2023-02-17T21:51:31.384Z,14.25
2023-02-17T21:53:59.618Z,10.90
2023-02-17T21:56:27.531Z,12.32
2023-02-17T21:58:56.335Z,15.30
2023-02-17T22:01:26.006Z,8.10
2023-02-17T22:03:53.636Z,10.18
2023-02-17T22:06:30.099Z,10.60
2023-02-17T22:08:58.920Z,14.20
2023-02-17T22:11:32.547Z,14.45
2023-02-17T22:14:03.379Z,13.95
2023-02-17T22:16:32.611Z,15.00
2023-02-17T22:19:01.099Z,12.55
2023-02-17T22:21:29.368Z,10.52
2023-02-17T22:23:58.668Z,11.85
2023-02-17T22:26:27.321Z,13.70
2023-02-17T22:28:56.065Z,14.93
2023-02-17T22:31:26.093Z,10.70
2023-02-17T22:33:55.804Z,10.38
2023-02-17T22:36:24.674Z,12.68
2023-02-17T22:38:52.938Z,14.07
2023-02-17T22:41:23.454Z,14.10
2023-02-17T22:43:52.074Z,13.23
2023-02-17T22:46:22.035Z,14.93
2023-02-17T22:48:51.959Z,10.18
2023-02-17T22:51:23.915Z,9.95
2023-02-17T22:53:52.207Z,13.20
2023-02-17T22:56:20.645Z,15.95
2023-02-17T22:58:49.151Z,13.55
2023-02-17T23:01:20.925Z,14.75
2023-02-17T23:03:54.033Z,12.07
2023-02-17T23:06:29.800Z,14.80
2023-02-17T23:08:58.512Z,14.23
2023-02-17T23:11:47.986Z,13.75
2023-02-17T23:14:24.389Z,16.05
2023-02-17T23:16:53.351Z,13.70
2023-02-17T23:19:22.545Z,16.05
2023-02-17T23:21:53.063Z,12.90
2023-02-17T23:24:22.348Z,20.77
2023-02-17T23:26:50.645Z,13.70
2023-02-17T23:29:18.629Z,14.43
2023-02-17T23:31:46.372Z,11.35
2023-02-17T23:34:15.876Z,13.02
2023-02-17T23:36:45.800Z,15.77
2023-02-17T23:39:15.049Z,16.45
2023-02-17T23:41:42.826Z,13.65
2023-02-17T23:44:12.847Z,19.60
2023-02-17T23:46:41.716Z,15.80
2023-02-17T23:49:12.390Z,19.42
2023-02-17T23:51:39.941Z,16.13
2023-02-17T23:54:07.522Z,20.08
2023-02-17T23:56:36.113Z,21.23
2023-02-17T23:59:04.239Z,16.35
